Wisconsin Rapids, Wisconsin
Current Conditions -  °F | °C
As of 5:54 PM on Saturday 25 Oct 2014 (Local Time) from KISW Reporting Station
Clear Clear  
Wind Chill: 58°   Ceiling: Unl
Heat Index: 58°   Visibility: 10mi
Dew Point: 27°   Wind: 10mph
Humidity: 31%   Direction: 280°W
Pressure: 29.94"   Gusts: NA
Location:  44.39°N, 89.82°W
Report Text: KISW 252254Z AUTO 28009KT 10SM CLR 14/M03 A2994 RMK AO2 SLP141 T01441028
Loading
Personal Weather Stations






























Interactive Weather Map New forecast layout! Learn more

10-Day Weather Forecast

Advertisements
Track Severe Weather on mobile